createdAt,value
2018-09-05T00:02:06.302Z,5.90
2018-09-05T00:04:34.665Z,6.13
2018-09-05T00:07:03.029Z,6.03
2018-09-05T00:09:31.371Z,5.50
2018-09-05T00:11:59.772Z,5.83
2018-09-05T00:14:28.099Z,6.10
2018-09-05T00:16:56.489Z,6.70
2018-09-05T00:19:24.813Z,6.17
2018-09-05T00:21:53.211Z,5.70
2018-09-05T00:24:21.548Z,6.00
2018-09-05T00:26:49.894Z,6.20
2018-09-05T00:29:18.255Z,5.87
2018-09-05T00:31:46.657Z,6.17
2018-09-05T00:34:15.008Z,5.80
2018-09-05T00:36:43.377Z,5.77
2018-09-05T00:39:11.746Z,6.10
2018-09-05T00:41:40.102Z,6.40
2018-09-05T00:44:08.476Z,6.30
2018-09-05T00:46:36.827Z,6.13
2018-09-05T00:49:05.313Z,6.57
2018-09-05T00:51:33.640Z,6.30
2018-09-05T00:54:01.994Z,6.50
2018-09-05T00:56:30.358Z,6.87
2018-09-05T00:58:58.728Z,6.83
2018-09-05T01:01:27.628Z,6.40
2018-09-05T01:03:56.006Z,6.87
2018-09-05T01:06:24.371Z,5.83
2018-09-05T01:08:52.810Z,6.60
2018-09-05T01:11:21.322Z,7.00
2018-09-05T01:13:49.658Z,6.00
2018-09-05T01:16:18.009Z,5.90
2018-09-05T01:18:46.345Z,6.33
2018-09-05T01:21:14.738Z,6.20
2018-09-05T01:23:43.069Z,6.80
2018-09-05T01:26:11.423Z,6.73
2018-09-05T01:28:39.769Z,6.53
2018-09-05T01:31:08.116Z,6.37
2018-09-05T01:33:36.863Z,6.23
2018-09-05T01:36:11.585Z,6.73
2018-09-05T01:38:40.431Z,6.57
2018-09-05T01:41:09.021Z,6.70
2018-09-05T01:43:37.627Z,7.03
2018-09-05T01:46:06.075Z,6.53
2018-09-05T01:48:34.551Z,6.50
2018-09-05T01:51:02.927Z,6.80
2018-09-05T01:53:31.269Z,7.07
2018-09-05T01:55:59.744Z,6.43
2018-09-05T01:58:28.088Z,6.87
2018-09-05T02:00:56.411Z,6.63
2018-09-05T02:03:24.772Z,6.80
2018-09-05T02:05:53.101Z,7.40
2018-09-05T02:08:21.503Z,7.33
2018-09-05T02:10:49.900Z,6.93
2018-09-05T02:13:18.240Z,6.60
2018-09-05T02:15:46.620Z,6.53
2018-09-05T02:18:14.990Z,7.40
2018-09-05T02:20:43.339Z,7.23
2018-09-05T02:23:11.724Z,7.57
2018-09-05T02:25:40.072Z,7.37
2018-09-05T02:28:08.403Z,7.00
2018-09-05T02:30:36.778Z,7.83
2018-09-05T02:33:05.416Z,7.60
2018-09-05T02:35:33.754Z,7.90
2018-09-05T02:38:02.144Z,7.03
2018-09-05T02:40:30.547Z,7.07
2018-09-05T02:42:58.806Z,6.97
2018-09-05T02:45:27.126Z,7.20
2018-09-05T02:47:55.482Z,7.37
2018-09-05T02:50:23.828Z,7.37
2018-09-05T02:52:52.178Z,7.67
2018-09-05T02:55:25.921Z,7.40
2018-09-05T02:57:54.279Z,7.50
2018-09-05T03:00:22.626Z,7.07
2018-09-05T03:02:50.970Z,7.70
2018-09-05T03:05:19.344Z,7.27
2018-09-05T03:07:47.700Z,7.37
2018-09-05T03:10:16.053Z,7.87
2018-09-05T03:12:44.404Z,7.70
2018-09-05T03:15:12.726Z,6.60
2018-09-05T03:17:41.076Z,7.03
2018-09-05T03:20:09.442Z,7.33
2018-09-05T03:22:37.832Z,7.33
2018-09-05T03:25:06.469Z,7.23
2018-09-05T03:27:34.827Z,7.57
2018-09-05T03:30:03.210Z,7.57
2018-09-05T03:32:31.643Z,7.70
2018-09-05T03:34:59.931Z,8.30
2018-09-05T03:37:28.315Z,7.87
2018-09-05T03:39:56.713Z,8.03
2018-09-05T03:42:25.056Z,8.03
2018-09-05T03:44:53.411Z,8.33
2018-09-05T03:47:21.756Z,7.30
2018-09-05T03:49:50.189Z,7.27
2018-09-05T03:52:18.503Z,7.67
2018-09-05T03:54:48.911Z,9.10
2018-09-05T03:57:17.239Z,8.03
2018-09-05T03:59:45.623Z,9.20
2018-09-05T04:02:14.004Z,7.80
2018-09-05T04:04:42.309Z,8.47
2018-09-05T04:07:10.666Z,8.63
2018-09-05T04:09:39.047Z,8.00
2018-09-05T04:12:07.430Z,10.10
2018-09-05T04:14:35.811Z,9.60
2018-09-05T04:17:04.168Z,10.37
2018-09-05T04:19:32.528Z,8.67
2018-09-05T04:22:00.974Z,8.50
2018-09-05T04:24:29.241Z,8.47
2018-09-05T04:26:57.608Z,9.43
2018-09-05T04:29:26.014Z,8.77
2018-09-05T04:31:54.364Z,8.80
2018-09-05T04:34:22.704Z,8.73
2018-09-05T04:36:51.080Z,9.23
2018-09-05T04:39:19.394Z,8.93
2018-09-05T04:41:47.802Z,10.83
2018-09-05T04:44:16.139Z,9.53
2018-09-05T04:46:44.490Z,10.07
2018-09-05T04:49:12.848Z,9.20
2018-09-05T04:51:41.224Z,9.00
2018-09-05T04:54:09.602Z,9.83
2018-09-05T04:56:37.988Z,9.53
2018-09-05T04:59:06.415Z,9.13
2018-09-05T05:01:34.984Z,9.00
2018-09-05T05:04:03.344Z,9.87
2018-09-05T05:06:31.737Z,9.07
2018-09-05T05:09:00.098Z,8.80
2018-09-05T05:11:28.450Z,9.47
2018-09-05T05:13:56.869Z,9.50
2018-09-05T05:16:25.168Z,9.10
2018-09-05T05:18:53.547Z,8.87
2018-09-05T05:21:21.887Z,8.73
2018-09-05T05:23:50.225Z,8.27
2018-09-05T05:29:09.271Z,9.00
2018-09-05T05:31:37.675Z,8.80
2018-09-05T05:34:06.010Z,8.47
2018-09-05T05:36:34.411Z,8.03
2018-09-05T05:39:03.068Z,8.43
2018-09-05T05:41:31.443Z,8.47
2018-09-05T05:43:59.919Z,8.10
2018-09-05T05:46:28.334Z,8.90
2018-09-05T05:48:57.233Z,8.67
2018-09-05T05:51:25.579Z,8.40
2018-09-05T05:53:54.749Z,9.13
2018-09-05T05:56:23.071Z,9.07
2018-09-05T05:58:51.440Z,9.50
2018-09-05T06:01:20.106Z,9.87
2018-09-05T06:03:49.011Z,10.23
2018-09-05T06:06:17.590Z,9.07
2018-09-05T06:08:45.842Z,9.63
2018-09-05T06:11:14.220Z,10.73
2018-09-05T06:13:43.058Z,10.10
2018-09-05T06:16:11.396Z,11.00
2018-09-05T06:18:40.434Z,10.90
2018-09-05T06:21:08.908Z,11.00
2018-09-05T06:23:37.272Z,10.73
2018-09-05T06:26:05.711Z,10.67
2018-09-05T06:28:34.216Z,10.53
2018-09-05T06:31:02.828Z,10.60
2018-09-05T06:33:31.624Z,11.20
2018-09-05T06:36:00.699Z,10.87
2018-09-05T06:38:29.136Z,11.30
2018-09-05T06:40:58.083Z,10.93
2018-09-05T06:43:26.935Z,11.93
2018-09-05T06:45:55.391Z,11.73
2018-09-05T06:48:23.977Z,11.43
2018-09-05T06:50:56.717Z,10.67
2018-09-05T06:53:25.993Z,9.97
2018-09-05T06:55:54.461Z,11.20
2018-09-05T06:58:22.971Z,11.40
2018-09-05T07:00:51.303Z,20.07
2018-09-05T07:03:19.723Z,11.53
2018-09-05T07:05:48.493Z,11.00
2018-09-05T07:08:16.899Z,10.63
2018-09-05T07:10:45.259Z,10.57
2018-09-05T07:13:13.660Z,10.90
2018-09-05T07:15:42.152Z,10.60
2018-09-05T07:18:10.472Z,10.67
2018-09-05T07:20:38.897Z,11.07
2018-09-05T07:23:07.435Z,10.63
2018-09-05T07:25:35.814Z,12.47
2018-09-05T07:28:04.453Z,10.47
2018-09-05T07:30:32.903Z,11.03
2018-09-05T07:33:01.236Z,11.10
2018-09-05T07:35:29.592Z,10.13
2018-09-05T07:37:57.975Z,10.57
2018-09-05T07:40:26.417Z,10.93
2018-09-05T07:42:54.775Z,10.43
2018-09-05T07:45:23.432Z,10.07
2018-09-05T07:47:51.966Z,11.23
2018-09-05T07:50:20.393Z,11.77
2018-09-05T07:52:48.783Z,10.30
2018-09-05T07:55:17.253Z,10.33
2018-09-05T07:57:45.677Z,11.23
2018-09-05T08:00:14.189Z,10.50
2018-09-05T08:02:42.596Z,11.77
2018-09-05T08:05:10.987Z,11.03
2018-09-05T08:07:39.420Z,11.10
2018-09-05T08:10:07.929Z,11.17
2018-09-05T08:12:36.416Z,11.20
2018-09-05T08:15:04.931Z,11.30
2018-09-05T08:17:33.466Z,10.80
2018-09-05T08:20:01.913Z,10.20
2018-09-05T08:22:30.337Z,10.43
2018-09-05T08:24:58.813Z,10.53
2018-09-05T08:27:27.381Z,10.50
2018-09-05T08:29:55.919Z,10.23
2018-09-05T08:32:24.359Z,10.90
2018-09-05T08:34:53.385Z,9.37
2018-09-05T08:37:21.967Z,8.60
2018-09-05T08:39:53.660Z,8.50
2018-09-05T08:42:22.164Z,8.63
2018-09-05T08:44:50.847Z,9.27
2018-09-05T08:47:19.300Z,8.47
2018-09-05T08:49:47.644Z,8.67
2018-09-05T08:52:16.076Z,7.97
2018-09-05T08:54:44.500Z,8.53
2018-09-05T08:57:12.891Z,8.50
2018-09-05T08:59:41.280Z,8.10
2018-09-05T09:02:09.737Z,7.97
2018-09-05T09:04:38.224Z,7.80
2018-09-05T09:07:06.679Z,7.10
2018-09-05T09:09:35.107Z,6.78
2018-09-05T09:12:03.519Z,6.43
2018-09-05T09:14:31.883Z,6.17
2018-09-05T09:17:00.600Z,6.70
2018-09-05T09:19:29.034Z,5.90
2018-09-05T09:21:57.571Z,5.70
2018-09-05T09:24:26.043Z,6.47
2018-09-05T09:26:54.437Z,6.40
2018-09-05T09:29:22.951Z,5.45
2018-09-05T09:31:51.413Z,5.75
2018-09-05T09:34:19.769Z,6.20
2018-09-05T09:36:48.173Z,6.33
2018-09-05T09:39:16.976Z,6.03
2018-09-05T09:41:45.376Z,5.87
2018-09-05T09:44:13.984Z,6.77
2018-09-05T09:46:42.391Z,6.10
2018-09-05T09:49:10.814Z,6.37
2018-09-05T09:51:39.183Z,6.10
2018-09-05T09:54:08.195Z,6.23
2018-09-05T09:56:36.578Z,6.50
2018-09-05T09:59:05.227Z,6.20
2018-09-05T10:01:38.922Z,5.07
2018-09-05T10:04:12.610Z,6.63
2018-09-05T10:06:47.126Z,5.97
2018-09-05T10:09:20.643Z,6.00
2018-09-05T10:11:54.462Z,5.92
2018-09-05T10:14:28.166Z,6.40
2018-09-05T10:17:02.572Z,5.45
2018-09-05T10:19:31.244Z,4.67
2018-09-05T10:21:59.774Z,4.85
2018-09-05T10:24:29.496Z,4.90
2018-09-05T10:26:58.030Z,5.45
2018-09-05T10:29:26.726Z,4.70
2018-09-05T10:31:56.187Z,4.93
2018-09-05T10:34:25.298Z,4.93
2018-09-05T10:36:54.774Z,5.13
2018-09-05T10:39:23.636Z,4.62
2018-09-05T10:41:52.181Z,4.92
2018-09-05T10:44:20.815Z,4.15
2018-09-05T10:46:49.596Z,4.45
2018-09-05T10:49:18.274Z,4.22
2018-09-05T10:51:52.804Z,4.20
2018-09-05T10:54:22.091Z,4.50
2018-09-05T10:56:51.620Z,5.40
2018-09-05T10:59:20.324Z,4.50
2018-09-05T11:01:48.900Z,4.35
2018-09-05T11:04:17.572Z,4.80
2018-09-05T11:06:48.052Z,4.05
2018-09-05T11:09:16.841Z,4.70
2018-09-05T11:11:45.675Z,4.35
2018-09-05T11:14:14.265Z,5.28
2018-09-05T11:16:43.619Z,5.08
2018-09-05T11:19:12.496Z,5.08
2018-09-05T11:21:41.183Z,5.60
2018-09-05T11:24:09.796Z,5.45
2018-09-05T11:26:39.829Z,5.25
2018-09-05T11:31:59.151Z,4.92
2018-09-05T11:34:27.659Z,5.60
2018-09-05T11:36:57.063Z,5.30
2018-09-05T11:39:25.663Z,5.35
2018-09-05T11:41:54.273Z,5.10
2018-09-05T11:44:22.949Z,5.60
2018-09-05T11:46:51.621Z,4.95
2018-09-05T11:49:20.132Z,4.70
2018-09-05T11:51:48.769Z,4.92
2018-09-05T11:54:17.367Z,5.08
2018-09-05T11:56:46.026Z,5.12
2018-09-05T11:59:14.519Z,4.90
2018-09-05T12:01:43.134Z,4.80
2018-09-05T12:04:11.806Z,5.03
2018-09-05T12:06:40.895Z,4.87
2018-09-05T12:09:11.275Z,4.87
2018-09-05T12:11:39.978Z,5.03
2018-09-05T12:14:09.194Z,4.97
2018-09-05T12:16:38.923Z,4.55
2018-09-05T12:19:08.066Z,4.80
2018-09-05T12:21:38.219Z,5.10
2018-09-05T12:24:07.908Z,4.53
2018-09-05T12:26:37.741Z,4.80
2018-09-05T12:29:09.416Z,4.73
2018-09-05T12:31:38.187Z,4.40
2018-09-05T12:34:07.056Z,4.50
2018-09-05T12:36:35.875Z,4.42
2018-09-05T12:39:07.498Z,4.53
2018-09-05T12:41:37.399Z,4.35
2018-09-05T12:44:06.470Z,4.70
2018-09-05T12:46:35.489Z,4.55
2018-09-05T12:49:04.050Z,4.78
2018-09-05T12:51:32.938Z,5.00
2018-09-05T12:54:01.506Z,5.43
2018-09-05T12:56:30.002Z,5.33
2018-09-05T12:58:58.699Z,4.90
2018-09-05T13:01:28.732Z,5.33
2018-09-05T13:03:57.873Z,4.40
2018-09-05T13:06:26.762Z,5.00
2018-09-05T13:08:55.346Z,5.20
2018-09-05T13:11:23.913Z,5.47
2018-09-05T13:13:52.419Z,4.78
2018-09-05T13:16:20.916Z,4.78
2018-09-05T13:18:49.416Z,4.90
2018-09-05T13:21:17.885Z,4.40
2018-09-05T13:23:47.189Z,5.37
2018-09-05T13:26:15.713Z,4.22
2018-09-05T13:28:44.679Z,4.90
2018-09-05T13:31:13.257Z,4.70
2018-09-05T13:33:42.296Z,4.93
2018-09-05T13:36:10.988Z,4.93
2018-09-05T13:38:39.543Z,4.33
2018-09-05T13:41:08.153Z,4.43
2018-09-05T13:43:37.279Z,4.40
2018-09-05T13:46:05.981Z,4.10
2018-09-05T13:48:34.818Z,4.60
2018-09-05T13:51:03.901Z,4.00
2018-09-05T13:53:32.509Z,4.13
2018-09-05T13:56:01.181Z,4.03
2018-09-05T13:58:30.744Z,4.70
2018-09-05T14:00:59.356Z,4.13
2018-09-05T14:03:27.939Z,4.93
2018-09-05T14:05:56.440Z,4.57
2018-09-05T14:08:28.914Z,4.90
2018-09-05T14:10:57.576Z,4.63
2018-09-05T14:13:26.689Z,4.23
2018-09-05T14:15:55.197Z,4.77
2018-09-05T14:18:23.714Z,3.93
2018-09-05T14:20:52.251Z,4.33
2018-09-05T14:23:20.798Z,4.43
2018-09-05T14:25:49.375Z,4.30
2018-09-05T14:28:17.927Z,4.60
2018-09-05T14:30:46.461Z,4.60
2018-09-05T14:33:15.053Z,4.27
2018-09-05T14:35:43.802Z,4.67
2018-09-05T14:38:12.490Z,4.70
2018-09-05T14:40:41.006Z,4.17
2018-09-05T14:43:10.187Z,4.57
2018-09-05T14:45:38.804Z,3.83
2018-09-05T14:48:08.141Z,4.17
2018-09-05T14:50:36.622Z,4.27
2018-09-05T14:53:05.133Z,4.30
2018-09-05T14:55:33.749Z,4.43
2018-09-05T14:58:04.384Z,4.50
2018-09-05T15:00:33.181Z,4.43
2018-09-05T15:03:02.020Z,4.10
2018-09-05T15:05:30.725Z,4.63
2018-09-05T15:07:59.254Z,4.67
2018-09-05T15:10:27.823Z,4.80
2018-09-05T15:12:56.354Z,4.33
2018-09-05T15:15:24.885Z,4.60
2018-09-05T15:17:53.451Z,4.70
2018-09-05T15:20:22.013Z,4.83
2018-09-05T15:22:50.543Z,4.37
2018-09-05T15:25:19.089Z,4.27
2018-09-05T15:27:47.570Z,4.63
2018-09-05T15:30:16.116Z,4.37
2018-09-05T15:32:44.637Z,5.10
2018-09-05T15:35:13.177Z,4.53
2018-09-05T15:37:41.712Z,4.40
2018-09-05T15:40:10.231Z,4.33
2018-09-05T15:42:38.877Z,4.40
2018-09-05T15:45:07.432Z,4.33
2018-09-05T15:47:35.933Z,4.47
2018-09-05T15:50:04.959Z,4.27
2018-09-05T15:52:33.565Z,4.30
2018-09-05T15:55:02.091Z,4.20
2018-09-05T15:57:30.709Z,4.90
2018-09-05T15:59:59.242Z,4.40
2018-09-05T16:02:28.257Z,4.73
2018-09-05T16:04:57.130Z,3.93
2018-09-05T16:07:25.613Z,4.50
2018-09-05T16:09:54.119Z,4.40
2018-09-05T16:12:22.645Z,4.70
2018-09-05T16:14:51.135Z,4.83
2018-09-05T16:17:19.609Z,4.57
2018-09-05T16:19:48.092Z,4.07
2018-09-05T16:22:16.518Z,5.07
2018-09-05T16:24:45.062Z,4.63
2018-09-05T16:27:13.745Z,4.30
2018-09-05T16:29:42.807Z,4.77
2018-09-05T16:32:11.268Z,4.80
2018-09-05T16:34:39.884Z,4.80
2018-09-05T16:37:08.374Z,11.90
2018-09-05T16:39:36.874Z,8.27
2018-09-05T16:42:05.332Z,5.03
2018-09-05T16:44:33.829Z,5.30
2018-09-05T16:47:02.304Z,5.33
2018-09-05T16:49:30.818Z,5.53
2018-09-05T16:51:59.311Z,5.33
2018-09-05T16:54:28.050Z,8.00
2018-09-05T16:56:56.604Z,7.90
2018-09-05T16:59:25.146Z,5.80
2018-09-05T17:01:53.850Z,5.50
2018-09-05T17:04:22.288Z,6.00
2018-09-05T17:06:50.784Z,5.97
2018-09-05T17:09:19.224Z,5.60
2018-09-05T17:11:47.686Z,4.87
2018-09-05T17:14:16.131Z,5.33
2018-09-05T17:16:44.595Z,5.30
2018-09-05T17:19:13.057Z,5.27
2018-09-05T17:21:41.575Z,5.13
2018-09-05T17:24:10.059Z,5.57
2018-09-05T17:26:38.578Z,5.23
2018-09-05T17:29:07.720Z,13.20
2018-09-05T17:31:36.187Z,9.77
2018-09-05T17:34:05.346Z,7.00
2018-09-05T17:36:33.777Z,5.17
2018-09-05T17:39:02.259Z,5.60
2018-09-05T17:41:30.763Z,5.17
2018-09-05T17:43:59.259Z,5.03
2018-09-05T17:46:27.833Z,4.90
2018-09-05T17:48:56.699Z,5.93
2018-09-05T17:51:25.172Z,5.43
2018-09-05T17:53:53.714Z,5.07
2018-09-05T17:56:22.395Z,4.90
2018-09-05T17:58:50.899Z,7.10
2018-09-05T18:01:22.344Z,8.87
2018-09-05T18:03:50.823Z,5.43
2018-09-05T18:06:19.365Z,5.33
2018-09-05T18:08:47.919Z,5.47
2018-09-05T18:11:16.457Z,5.37
2018-09-05T18:13:45.030Z,5.37
2018-09-05T18:18:52.952Z,5.30
2018-09-05T18:21:21.495Z,5.73
2018-09-05T18:23:50.629Z,5.67
2018-09-05T18:26:21.408Z,11.00
2018-09-05T18:28:49.890Z,16.57
2018-09-05T18:31:18.625Z,7.80
2018-09-05T18:33:47.276Z,6.03
2018-09-05T18:36:15.915Z,5.70
2018-09-05T18:38:44.389Z,5.50
2018-09-05T18:41:13.117Z,5.60
2018-09-05T18:43:41.694Z,10.23
2018-09-05T18:46:10.266Z,19.30
2018-09-05T18:48:39.032Z,7.47
2018-09-05T18:51:08.288Z,5.90
2018-09-05T18:53:36.688Z,6.23
2018-09-05T18:56:05.253Z,6.30
2018-09-05T18:58:33.699Z,6.93
2018-09-05T19:01:02.421Z,18.70
2018-09-05T19:03:30.866Z,6.90
2018-09-05T19:05:59.491Z,6.87
2018-09-05T19:08:28.069Z,6.30
2018-09-05T19:10:56.814Z,6.37
2018-09-05T19:13:25.238Z,5.87
2018-09-05T19:15:53.707Z,5.90
2018-09-05T19:18:22.732Z,5.80
2018-09-05T19:20:51.246Z,14.77
2018-09-05T19:23:20.118Z,9.33
2018-09-05T19:25:48.604Z,10.20
2018-09-05T19:28:18.077Z,7.70
2018-09-05T19:30:46.589Z,7.47
2018-09-05T19:33:14.988Z,7.40
2018-09-05T19:35:43.425Z,7.03
2018-09-05T19:38:11.890Z,6.50
2018-09-05T19:40:40.691Z,6.90
2018-09-05T19:43:09.213Z,6.93
2018-09-05T19:45:38.099Z,6.57
2018-09-05T19:48:08.039Z,7.03
2018-09-05T19:50:36.468Z,7.93
2018-09-05T19:53:04.861Z,7.87
2018-09-05T19:55:33.354Z,7.10
2018-09-05T19:58:02.012Z,8.23
2018-09-05T20:00:31.428Z,23.00
2018-09-05T20:02:59.929Z,10.77
2018-09-05T20:05:29.177Z,8.27
2018-09-05T20:07:58.825Z,8.27
2018-09-05T20:10:27.348Z,7.97
2018-09-05T20:12:55.813Z,8.07
2018-09-05T20:15:24.512Z,8.40
2018-09-05T20:17:53.641Z,8.47
2018-09-05T20:20:22.137Z,8.63
2018-09-05T20:22:50.645Z,7.93
2018-09-05T20:25:19.515Z,8.40
2018-09-05T20:27:48.719Z,7.57
2018-09-05T20:30:17.189Z,10.03
2018-09-05T20:32:45.705Z,8.00
2018-09-05T20:35:14.135Z,7.57
2018-09-05T20:37:46.622Z,7.53
2018-09-05T20:40:15.825Z,7.60
2018-09-05T20:42:44.299Z,7.40
2018-09-05T20:45:12.940Z,7.23
2018-09-05T20:47:41.464Z,7.47
2018-09-05T20:50:09.959Z,6.60
2018-09-05T20:52:38.402Z,7.67
2018-09-05T20:55:06.893Z,8.13
2018-09-05T20:57:35.464Z,8.60
2018-09-05T21:00:04.058Z,8.40
2018-09-05T21:02:32.505Z,8.40
2018-09-05T21:05:01.092Z,8.17
2018-09-05T21:07:30.081Z,9.67
2018-09-05T21:09:58.610Z,8.47
2018-09-05T21:12:27.112Z,8.37
2018-09-05T21:14:55.741Z,8.73
2018-09-05T21:17:24.870Z,8.10
2018-09-05T21:19:53.334Z,8.47
2018-09-05T21:22:22.002Z,9.17
2018-09-05T21:24:50.828Z,21.00
2018-09-05T21:27:19.278Z,16.77
2018-09-05T21:29:47.759Z,9.67
2018-09-05T21:32:18.643Z,9.43
2018-09-05T21:34:47.141Z,9.50
2018-09-05T21:37:15.705Z,8.37
2018-09-05T21:39:44.178Z,7.77
2018-09-05T21:42:12.811Z,7.90
2018-09-05T21:44:41.240Z,7.37
2018-09-05T21:47:09.795Z,7.70
2018-09-05T21:49:38.514Z,7.40
2018-09-05T21:52:07.155Z,8.17
2018-09-05T21:54:35.549Z,7.17
2018-09-05T21:57:03.981Z,7.67
2018-09-05T21:59:32.539Z,8.30
2018-09-05T22:02:01.007Z,7.63
2018-09-05T22:04:30.019Z,7.47
2018-09-05T22:06:58.415Z,7.97
2018-09-05T22:09:27.163Z,7.23
2018-09-05T22:11:55.559Z,7.80
2018-09-05T22:14:24.050Z,7.67
2018-09-05T22:16:57.353Z,7.70
2018-09-05T22:19:25.769Z,7.23
2018-09-05T22:21:54.899Z,7.23
2018-09-05T22:24:23.385Z,7.23
2018-09-05T22:26:52.140Z,6.90
2018-09-05T22:29:20.591Z,7.90
2018-09-05T22:31:48.980Z,7.20
2018-09-05T22:34:18.959Z,7.70
2018-09-05T22:36:48.248Z,7.67
2018-09-05T22:39:16.685Z,7.37
2018-09-05T22:41:45.180Z,7.63
2018-09-05T22:44:24.856Z,8.10
2018-09-05T22:47:04.319Z,7.27
2018-09-05T22:49:49.167Z,8.00
2018-09-05T22:53:00.765Z,7.13
2018-09-05T22:56:46.828Z,7.67
2018-09-05T22:59:26.096Z,7.87
2018-09-05T23:02:04.600Z,7.57
2018-09-05T23:06:46.739Z,7.97
2018-09-05T23:09:15.682Z,7.40
2018-09-05T23:11:59.110Z,7.77
2018-09-05T23:15:36.848Z,8.40
2018-09-05T23:18:16.427Z,7.80
2018-09-05T23:21:26.300Z,7.40
2018-09-05T23:23:58.671Z,7.67
2018-09-05T23:26:27.464Z,7.53
2018-09-05T23:28:55.837Z,7.70
2018-09-05T23:31:24.536Z,7.97
2018-09-05T23:33:52.988Z,8.33
2018-09-05T23:36:21.669Z,8.47
2018-09-05T23:38:50.353Z,8.03
2018-09-05T23:41:18.696Z,8.03
2018-09-05T23:43:47.059Z,8.10
2018-09-05T23:46:15.451Z,8.43
2018-09-05T23:48:43.874Z,8.37
2018-09-05T23:51:12.297Z,8.90
2018-09-05T23:53:40.666Z,9.13
2018-09-05T23:56:09.016Z,8.03
2018-09-05T23:58:37.495Z,7.87
